Terminal Aerodrome Forecast
Issued by NWS Corpus Christi, TX

Current Version | Previous Version | Text Only | Print | Product List | Glossary Off
Versions: 1 2 3 4 5 6 7 8 9 10 11 12 13 14 15 16 17 18 19

000
FTUS44 KCRP 260530
TAFVCT
TAF
KVCT 260530Z 2606/2706 05005KT P6SM SKC
     FM260900 06004KT P6SM SCT025
      TEMPO 2610/2612 5SM BR
     FM261500 09006KT P6SM BKN025 BKN250
     FM261800 16012G18KT P6SM VCSH BKN030 OVC250
     FM270200 15016KT P6SM OVC015=

USA.gov is the U.S. government's official web portal to all federal, state and local government web resources and services.